Airfield :
LOGIN :

Register | Disclaimer

   EN    FR    IT 

 










Legend :    VFR   Marginal VFR   IFR   Intensive IFR   Very Intensive IFR
Visi :
Ceiling :
>= 8 km
>= 3000ft
5 to 8 km
1000 to 3000 ft
1500m to 5 km
500 to 1000 ft
800 to 1500m
200 to 500 ft
< 800m
< 200 ft
Symbols :   Thunderstorms  Fog  Heavy snow  Heavy precipitations  Wind > 20 kt
SIGMETs :     Misc.  Thunderstorms  Icing  Turbulence  Mountain Waves  Volcanic Ashes







- Airport Elevation : 313 ft
- IATA code : LEH
- Download approach charts


LFOH - Le Havre Octeville

CURRENT METAR :
  • 220400Z AUTO 26003KT 3800 BR NSC 10/09 Q1013

EXPIRED METARs :
  • 220330Z AUTO 26003KT 4000 BR NSC 11/10 Q1013
  • 220300Z AUTO VRB02KT 4300 BR NSC 11/09 Q1013
  • 220230Z AUTO VRB03KT 5000 BR NSC 10/09 Q1013
  • 220200Z AUTO VRB03KT CAVOK 10/08 Q1013
  • 220130Z AUTO 34005KT CAVOK 10/08 Q1013

TAF TAF LFOH
Valid from the 21 at 12:00 until the 22 at 12:00 UTC


211100Z 2112/2212 35010KT CAVOK
PROB30
TEMPO 2112/2116 3000 TSRA BKN040CB
BECMG 2117/2119 VRB02KT
BECMG 2123/2202 3000 BR
PROB30 2202/2208 0200 FG VV///
ATIS : +33 2 35 54 64 93
No reported NOTAMs for that airfield.



MET'MAP, your aeronautical weather chart ! - Copyright ORBIFLY December 2007 - Disclaimer

ORBIFLY MET'MAP TEAM :

Programming & Development : Alexandra Zaïnal
Concept & Development : Baudouin d'Aumeries
Co-Development & Prog : Marc-Olivier Méhu
Technical & hardware support : Manuel Goepfert

Contact : metmap@orbifly.com




SOURCES & CREDITS :

   NOAA